createdAt,value
2022-11-05T00:02:08.576Z,96861.66
2022-11-05T00:04:55.156Z,96851.94
2022-11-05T00:07:48.070Z,96856.66
2022-11-05T00:10:21.933Z,96852.66
2022-11-05T00:13:09.517Z,96843.75
2022-11-05T00:15:59.155Z,96849.19
2022-11-05T00:18:28.921Z,96848.31
2022-11-05T00:20:58.396Z,96853.22
2022-11-05T00:23:44.692Z,96862.72
2022-11-05T00:26:17.556Z,96859.63
2022-11-05T00:28:48.403Z,96871.03
2022-11-05T00:31:17.829Z,96882.91
2022-11-05T00:33:46.955Z,96887.97
2022-11-05T00:36:15.904Z,96884.50
2022-11-05T00:38:45.726Z,96898.44
2022-11-05T00:41:16.331Z,96909.16
2022-11-05T00:44:02.864Z,96918.69
2022-11-05T00:46:32.145Z,96925.44
2022-11-05T00:49:19.570Z,96920.97
2022-11-05T00:52:08.731Z,96911.59
2022-11-05T00:54:38.183Z,96886.44
2022-11-05T00:57:08.812Z,96881.22
2022-11-05T00:59:38.483Z,96888.25
2022-11-05T01:02:08.291Z,96910.44
2022-11-05T01:04:37.987Z,96921.72
2022-11-05T01:07:07.516Z,96928.91
2022-11-05T01:09:36.812Z,96923.88
2022-11-05T01:12:08.356Z,96930.53
2022-11-05T01:14:37.658Z,96936.63
2022-11-05T01:17:07.217Z,96935.50
2022-11-05T01:19:36.484Z,96936.44
2022-11-05T01:22:05.946Z,96942.31
2022-11-05T01:24:35.930Z,96938.97
2022-11-05T01:27:05.909Z,96940.28
2022-11-05T01:29:38.115Z,96925.72
2022-11-05T01:32:08.598Z,96918.44
2022-11-05T01:34:40.629Z,96915.59
2022-11-05T01:37:10.296Z,96915.84
2022-11-05T01:39:40.039Z,96919.31
2022-11-05T01:42:16.975Z,96916.59
2022-11-05T01:45:03.361Z,96921.94
2022-11-05T01:47:45.207Z,96932.34
2022-11-05T01:50:32.714Z,96936.34
2022-11-05T01:53:07.617Z,96932.44
2022-11-05T01:55:39.907Z,96933.75
2022-11-05T01:58:13.003Z,96943.69
2022-11-05T02:00:44.967Z,96926.63
2022-11-05T02:03:16.541Z,96922.97
2022-11-05T02:05:46.711Z,96930.56
2022-11-05T02:08:23.884Z,96924.69
2022-11-05T02:10:53.516Z,96930.25
2022-11-05T02:13:24.271Z,96930.13
2022-11-05T02:16:04.088Z,96933.50
2022-11-05T02:18:46.190Z,96939.53
2022-11-05T02:21:35.933Z,96948.22
2022-11-05T02:24:30.110Z,96947.88
2022-11-05T02:27:14.299Z,96937.72
2022-11-05T02:30:23.417Z,96932.72
2022-11-05T02:33:31.108Z,96933.88
2022-11-05T02:36:22.532Z,96942.00
2022-11-05T02:39:00.464Z,96936.59
2022-11-05T02:41:39.925Z,96939.09
2022-11-05T02:44:17.740Z,96939.72
2022-11-05T02:46:53.323Z,96931.66
2022-11-05T02:49:32.932Z,96942.81
2022-11-05T02:52:08.128Z,96952.78
2022-11-05T02:54:41.271Z,96945.56
2022-11-05T02:57:10.990Z,96942.31
2022-11-05T02:59:42.649Z,96945.69
2022-11-05T03:02:12.588Z,96942.91
2022-11-05T03:04:42.284Z,96934.53
2022-11-05T03:07:25.425Z,96933.66
2022-11-05T03:10:20.127Z,96933.63
2022-11-05T03:12:58.276Z,96939.19
2022-11-05T03:15:40.400Z,96937.97
2022-11-05T03:18:13.335Z,96931.69
2022-11-05T03:20:48.052Z,96938.88
2022-11-05T03:23:25.694Z,96940.50
2022-11-05T03:25:59.481Z,96939.47
2022-11-05T03:28:32.898Z,96932.56
2022-11-05T03:31:06.352Z,96936.28
2022-11-05T03:33:37.065Z,96937.75
2022-11-05T03:36:11.735Z,96938.25
2022-11-05T03:38:45.518Z,96931.75
2022-11-05T03:41:17.474Z,96919.81
2022-11-05T03:43:50.322Z,96921.97
2022-11-05T03:46:24.682Z,96928.25
2022-11-05T03:48:56.618Z,96943.13
2022-11-05T03:51:40.193Z,96954.75
2022-11-05T03:54:11.624Z,96956.69
2022-11-05T03:56:44.811Z,96964.56
2022-11-05T03:59:14.825Z,96961.22
2022-11-05T04:01:44.824Z,96967.84
2022-11-05T04:04:14.320Z,96965.75
2022-11-05T04:07:01.044Z,96967.03
2022-11-05T04:09:49.579Z,96975.88
2022-11-05T04:12:36.735Z,96974.63
2022-11-05T04:15:06.776Z,96990.75
2022-11-05T04:17:35.281Z,96999.16
2022-11-05T04:20:22.313Z,96999.38
2022-11-05T04:23:32.975Z,96994.72
2022-11-05T04:26:03.723Z,96994.78
2022-11-05T04:28:47.266Z,96998.47
2022-11-05T04:31:17.125Z,96999.91
2022-11-05T04:33:46.748Z,97005.19
2022-11-05T04:36:16.695Z,97003.44
2022-11-05T04:38:46.028Z,97004.34
2022-11-05T04:41:18.453Z,97013.25
2022-11-05T04:43:47.730Z,97009.78
2022-11-05T04:46:17.140Z,97011.72
2022-11-05T04:48:46.646Z,97016.91
2022-11-05T04:51:16.025Z,97017.69
2022-11-05T04:53:45.510Z,97028.81
2022-11-05T04:56:20.895Z,97037.41
2022-11-05T04:58:50.600Z,97047.34
2022-11-05T05:01:22.359Z,97055.00
2022-11-05T05:03:53.105Z,97056.34
2022-11-05T05:06:22.840Z,97054.28
2022-11-05T05:08:53.283Z,97059.69
2022-11-05T05:11:24.271Z,97060.06
2022-11-05T05:13:53.554Z,97069.78
2022-11-05T05:16:24.574Z,97065.63
2022-11-05T05:18:54.543Z,97058.66
2022-11-05T05:21:42.427Z,97067.19
2022-11-05T05:24:14.073Z,97068.69
2022-11-05T05:26:46.639Z,97080.88
2022-11-05T05:29:16.492Z,97084.91
2022-11-05T05:31:48.999Z,97089.78
2022-11-05T05:34:18.251Z,97089.16
2022-11-05T05:36:48.149Z,97087.78
2022-11-05T05:39:17.615Z,97103.75
2022-11-05T05:41:48.586Z,97104.94
2022-11-05T05:44:18.597Z,97109.09
2022-11-05T05:47:54.888Z,97113.88
2022-11-05T05:50:25.595Z,97118.75
2022-11-05T05:52:55.921Z,97109.72
2022-11-05T05:55:38.335Z,97108.94
2022-11-05T05:58:11.265Z,97105.84
2022-11-05T06:00:52.060Z,97105.22
2022-11-05T06:03:43.695Z,97103.31
2022-11-05T06:06:26.628Z,97102.16
2022-11-05T06:09:13.030Z,97099.84
2022-11-05T06:11:42.356Z,97103.53
2022-11-05T06:14:13.818Z,97110.63
2022-11-05T06:16:43.280Z,97119.44
2022-11-05T06:19:15.212Z,97122.59
2022-11-05T06:21:44.701Z,97117.56
2022-11-05T06:24:18.427Z,97124.53
2022-11-05T06:26:51.706Z,97124.44
2022-11-05T06:29:25.230Z,97129.47
2022-11-05T06:31:55.546Z,97125.78
2022-11-05T06:34:25.042Z,97126.56
2022-11-05T06:36:54.324Z,97133.44
2022-11-05T06:39:23.608Z,97139.81
2022-11-05T06:42:18.320Z,97134.53
2022-11-05T06:44:49.814Z,97142.31
2022-11-05T06:47:19.900Z,97146.00
2022-11-05T06:49:49.417Z,97153.19
2022-11-05T06:52:18.656Z,97157.84
2022-11-05T06:54:50.869Z,97165.56
2022-11-05T06:57:20.158Z,97178.16
2022-11-05T06:59:52.684Z,97176.66
2022-11-05T07:02:25.345Z,97185.88
2022-11-05T07:04:54.553Z,97181.53
2022-11-05T07:07:23.500Z,97198.72
2022-11-05T07:09:54.210Z,97188.66
2022-11-05T07:12:30.300Z,97185.78
2022-11-05T07:15:01.760Z,97188.84
2022-11-05T07:17:31.417Z,97187.59
2022-11-05T07:20:17.475Z,97188.78
2022-11-05T07:22:46.446Z,97189.47
2022-11-05T07:25:15.730Z,97185.66
2022-11-05T07:27:44.832Z,97189.66
2022-11-05T07:30:15.677Z,97187.69
2022-11-05T07:32:45.405Z,97180.31
2022-11-05T07:35:14.670Z,97183.66
2022-11-05T07:37:44.868Z,97192.41
2022-11-05T07:40:15.803Z,97188.88
2022-11-05T07:42:46.769Z,97180.31
2022-11-05T07:45:17.917Z,97201.16
2022-11-05T07:47:48.937Z,97197.94
2022-11-05T07:50:20.173Z,97196.13
2022-11-05T07:52:50.231Z,97206.50
2022-11-05T07:55:21.733Z,97203.00
2022-11-05T07:57:52.088Z,97207.53
2022-11-05T08:00:24.976Z,97204.16
2022-11-05T08:05:48.607Z,97208.81
2022-11-05T08:08:20.105Z,97208.66
2022-11-05T08:10:49.684Z,97203.47
2022-11-05T08:13:20.105Z,97205.91
2022-11-05T08:15:51.337Z,97201.56
2022-11-05T08:18:20.894Z,97203.28
2022-11-05T08:20:50.876Z,97206.41
2022-11-05T08:23:20.453Z,97205.22
2022-11-05T08:25:50.127Z,97202.94
2022-11-05T08:28:19.919Z,97209.53
2022-11-05T08:30:52.987Z,97200.13
2022-11-05T08:33:23.101Z,97203.06
2022-11-05T08:35:53.031Z,97203.50
2022-11-05T08:38:22.597Z,97201.66
2022-11-05T08:40:57.643Z,97209.53
2022-11-05T08:43:27.353Z,97199.66
2022-11-05T08:45:58.508Z,97191.91
2022-11-05T08:48:28.044Z,97193.78
2022-11-05T08:50:57.408Z,97195.81
2022-11-05T08:53:26.707Z,97191.25
2022-11-05T08:56:00.702Z,97188.34
2022-11-05T08:58:30.956Z,97190.75
2022-11-05T09:01:05.221Z,97188.53
2022-11-05T09:03:35.211Z,97183.06
2022-11-05T09:06:04.803Z,97195.72
2022-11-05T09:08:34.186Z,97203.44
2022-11-05T09:11:04.485Z,97207.69
2022-11-05T09:13:34.022Z,97213.47
2022-11-05T09:16:05.048Z,97205.22
2022-11-05T09:18:35.677Z,97220.06
2022-11-05T09:21:05.160Z,97214.66
2022-11-05T09:23:35.127Z,97220.94
2022-11-05T09:26:05.001Z,97218.41
2022-11-05T09:28:34.485Z,97218.66
2022-11-05T09:31:08.669Z,97234.53
2022-11-05T09:33:39.495Z,97232.53
2022-11-05T09:36:10.380Z,97234.63
2022-11-05T09:38:40.021Z,97238.09
2022-11-05T09:41:13.711Z,97235.91
2022-11-05T09:43:46.013Z,97247.09
2022-11-05T09:46:20.910Z,97244.22
2022-11-05T09:48:54.806Z,97230.91
2022-11-05T09:51:24.974Z,97227.84
2022-11-05T09:53:54.707Z,97228.84
2022-11-05T09:56:26.079Z,97228.34
2022-11-05T09:58:59.709Z,97221.28
2022-11-05T10:01:33.526Z,97219.56
2022-11-05T10:04:07.627Z,97238.44
2022-11-05T10:06:38.339Z,97232.00
2022-11-05T10:09:13.475Z,97237.75
2022-11-05T10:11:47.013Z,97222.31
2022-11-05T10:14:19.721Z,97229.94
2022-11-05T10:16:54.569Z,97240.47
2022-11-05T10:19:25.658Z,97244.56
2022-11-05T10:22:06.725Z,97247.63
2022-11-05T10:24:36.714Z,97236.75
2022-11-05T10:31:35.446Z,97247.44
2022-11-05T10:34:09.028Z,97248.31
2022-11-05T10:36:39.982Z,97237.38
2022-11-05T10:39:15.014Z,97238.69
2022-11-05T10:41:56.465Z,97240.88
2022-11-05T10:44:34.389Z,97239.13
2022-11-05T10:47:28.338Z,97245.91
2022-11-05T10:50:01.601Z,97250.00
2022-11-05T10:52:35.831Z,97255.56
2022-11-05T10:55:14.930Z,97259.97
2022-11-05T10:57:46.305Z,97254.06
2022-11-05T11:00:30.619Z,97247.09
2022-11-05T11:03:02.734Z,97257.41
2022-11-05T11:05:36.683Z,97250.78
2022-11-05T11:08:19.787Z,97260.63
2022-11-05T11:10:52.356Z,97270.19
2022-11-05T11:13:23.876Z,97261.53
2022-11-05T11:15:55.448Z,97266.06
2022-11-05T11:18:33.378Z,97278.97
2022-11-05T11:21:15.693Z,97279.19
2022-11-05T11:23:45.837Z,97265.22
2022-11-05T11:26:16.587Z,97274.09
2022-11-05T11:28:49.080Z,97271.72
2022-11-05T11:31:22.078Z,97267.09
2022-11-05T11:33:53.060Z,97276.78
2022-11-05T11:36:34.118Z,97282.41
2022-11-05T11:39:05.664Z,97270.47
2022-11-05T11:41:37.579Z,97277.53
2022-11-05T11:44:11.358Z,97279.53
2022-11-05T11:46:41.018Z,97282.97
2022-11-05T11:49:32.579Z,97289.38
2022-11-05T11:52:06.485Z,97297.41
2022-11-05T11:54:36.447Z,97285.47
2022-11-05T11:57:15.165Z,97298.00
2022-11-05T12:00:07.899Z,97293.53
2022-11-05T12:02:58.818Z,97285.38
2022-11-05T12:05:42.997Z,97284.75
2022-11-05T12:08:33.330Z,97285.75
2022-11-05T12:11:07.661Z,97284.91
2022-11-05T12:14:00.945Z,97284.75
2022-11-05T12:17:09.876Z,97284.38
2022-11-05T12:20:17.352Z,97288.84
2022-11-05T12:23:08.971Z,97291.97
2022-11-05T12:25:43.598Z,97281.19
2022-11-05T12:28:24.293Z,97267.47
2022-11-05T12:31:01.221Z,97269.00
2022-11-05T12:33:44.374Z,97275.63
2022-11-05T12:36:24.162Z,97267.25
2022-11-05T12:39:07.378Z,97267.00
2022-11-05T12:41:46.915Z,97268.31
2022-11-05T12:44:31.464Z,97273.78
2022-11-05T12:47:08.385Z,97282.06
2022-11-05T12:49:53.810Z,97283.38
2022-11-05T12:52:47.756Z,97292.31
2022-11-05T12:55:19.573Z,97291.88
2022-11-05T12:57:54.457Z,97294.19
2022-11-05T13:00:29.060Z,97297.09
2022-11-05T13:03:21.324Z,97305.72
2022-11-05T13:05:52.771Z,97304.97
2022-11-05T13:08:28.828Z,97308.25
2022-11-05T13:11:00.596Z,97315.47
2022-11-05T13:13:39.041Z,97313.69
2022-11-05T13:16:15.053Z,97320.97
2022-11-05T13:18:48.179Z,97320.66
2022-11-05T13:21:19.101Z,97325.28
2022-11-05T13:23:51.307Z,97337.28
2022-11-05T13:26:24.200Z,97331.81
2022-11-05T13:28:58.913Z,97338.94
2022-11-05T13:31:31.673Z,97337.16
2022-11-05T13:34:04.562Z,97343.63
2022-11-05T13:37:04.088Z,97338.19
2022-11-05T13:39:37.662Z,97339.63
2022-11-05T13:42:36.079Z,97345.66
2022-11-05T13:45:44.457Z,97348.56
2022-11-05T13:48:53.648Z,97343.69
2022-11-05T13:51:43.338Z,97349.25
2022-11-05T13:54:36.348Z,97346.00
2022-11-05T13:57:27.871Z,97339.72
2022-11-05T14:00:06.350Z,97345.16
2022-11-05T14:02:43.003Z,97351.47
2022-11-05T14:05:25.554Z,97346.88
2022-11-05T14:07:55.851Z,97339.81
2022-11-05T14:10:35.388Z,97349.72
2022-11-05T14:13:16.093Z,97351.75
2022-11-05T14:15:59.470Z,97351.56
2022-11-05T14:18:45.386Z,97348.16
2022-11-05T14:21:50.310Z,97358.72
2022-11-05T14:24:47.943Z,97357.69
2022-11-05T14:27:43.725Z,97364.22
2022-11-05T14:30:42.066Z,97364.69
2022-11-05T14:33:33.703Z,97368.91
2022-11-05T14:36:35.298Z,97378.09
2022-11-05T14:39:21.676Z,97383.84
2022-11-05T14:41:59.168Z,97385.75
2022-11-05T14:44:29.378Z,97388.66
2022-11-05T14:47:01.447Z,97391.19
2022-11-05T14:49:33.132Z,97395.78
2022-11-05T14:52:08.351Z,97399.69
2022-11-05T14:54:42.603Z,97401.88
2022-11-05T14:57:15.624Z,97403.94
2022-11-05T15:00:03.159Z,97416.38
2022-11-05T15:02:36.918Z,97404.78
2022-11-05T15:05:37.736Z,97408.28
2022-11-05T15:08:31.583Z,97405.22
2022-11-05T15:11:10.805Z,97408.63
2022-11-05T15:13:46.114Z,97412.63
2022-11-05T15:16:19.198Z,97417.06
2022-11-05T15:18:49.523Z,97418.75
2022-11-05T15:21:20.131Z,97420.44
2022-11-05T15:23:59.056Z,97426.03
2022-11-05T15:26:32.122Z,97419.16
2022-11-05T15:29:01.949Z,97425.63
2022-11-05T15:31:34.930Z,97416.63
2022-11-05T15:34:28.842Z,97421.59
2022-11-05T15:37:01.985Z,97421.97
2022-11-05T15:39:42.444Z,97418.66
2022-11-05T15:42:16.418Z,97409.81
2022-11-05T15:44:47.577Z,97409.88
2022-11-05T15:47:20.246Z,97408.97
2022-11-05T15:49:51.549Z,97413.03
2022-11-05T15:52:22.877Z,97409.53
2022-11-05T15:55:23.699Z,97402.81
2022-11-05T15:58:00.932Z,97408.19
2022-11-05T16:00:32.146Z,97409.63
2022-11-05T16:03:05.837Z,97409.50
2022-11-05T16:05:38.597Z,97411.63
2022-11-05T16:08:08.161Z,97422.13
2022-11-05T16:10:40.320Z,97425.66
2022-11-05T16:13:28.481Z,97428.31
2022-11-05T16:15:59.655Z,97434.59
2022-11-05T16:18:34.577Z,97440.31
2022-11-05T16:21:06.909Z,97447.84
2022-11-05T16:23:45.309Z,97461.66
2022-11-05T16:27:01.068Z,97454.44
2022-11-05T16:29:29.477Z,97470.06
2022-11-05T16:32:00.068Z,97464.19
2022-11-05T16:34:32.333Z,97477.16
2022-11-05T16:37:01.944Z,97478.53
2022-11-05T16:39:31.344Z,97483.00
2022-11-05T16:42:02.413Z,97484.94
2022-11-05T16:44:32.042Z,97489.75
2022-11-05T16:47:01.528Z,97498.47
2022-11-05T16:49:31.329Z,97502.84
2022-11-05T16:52:01.524Z,97508.00
2022-11-05T16:54:31.098Z,97517.25
2022-11-05T16:57:02.189Z,97519.56
2022-11-05T16:59:32.130Z,97527.09
2022-11-05T17:02:01.959Z,97530.38
2022-11-05T17:04:31.677Z,97532.09
2022-11-05T17:07:01.384Z,97541.47
2022-11-05T17:09:31.917Z,97540.81
2022-11-05T17:12:03.014Z,97541.03
2022-11-05T17:14:32.350Z,97543.19
2022-11-05T17:17:02.300Z,97552.56
2022-11-05T17:19:32.426Z,97546.88
2022-11-05T17:22:02.701Z,97549.13
2022-11-05T17:24:32.260Z,97545.59
2022-11-05T17:27:03.735Z,97536.66
2022-11-05T17:29:32.935Z,97550.53
2022-11-05T17:32:02.583Z,97547.09
2022-11-05T17:34:32.266Z,97546.97
2022-11-05T17:37:02.218Z,97547.47
2022-11-05T17:39:32.207Z,97541.91
2022-11-05T17:42:03.481Z,97551.38
2022-11-05T17:44:32.854Z,97555.72
2022-11-05T17:47:02.325Z,97556.22
2022-11-05T17:49:31.811Z,97565.38
2022-11-05T17:52:01.966Z,97562.50
2022-11-05T17:54:32.499Z,97576.66
2022-11-05T17:57:03.687Z,97565.88
2022-11-05T17:59:33.946Z,97571.31
2022-11-05T18:02:03.550Z,97567.38
2022-11-05T18:04:33.882Z,97573.13
2022-11-05T18:07:03.895Z,97572.78
2022-11-05T18:09:33.215Z,97578.91
2022-11-05T18:12:04.748Z,97573.25
2022-11-05T18:14:34.117Z,97573.75
2022-11-05T18:17:03.395Z,97575.41
2022-11-05T18:19:33.204Z,97578.53
2022-11-05T18:22:02.765Z,97584.41
2022-11-05T18:24:32.356Z,97579.09
2022-11-05T18:27:03.541Z,97587.91
2022-11-05T18:29:33.226Z,97600.75
2022-11-05T18:32:02.695Z,97593.16
2022-11-05T18:34:33.851Z,97600.97
2022-11-05T18:37:04.168Z,97601.56
2022-11-05T18:39:33.553Z,97600.69
2022-11-05T18:42:04.587Z,97606.44
2022-11-05T18:44:39.015Z,97610.91
2022-11-05T18:47:08.936Z,97618.13
2022-11-05T18:49:38.946Z,97615.00
2022-11-05T18:52:08.589Z,97615.09
2022-11-05T18:54:38.663Z,97619.72
2022-11-05T18:57:10.163Z,97620.06
2022-11-05T18:59:42.228Z,97618.25
2022-11-05T19:02:13.848Z,97625.94
2022-11-05T19:05:06.664Z,97632.06
2022-11-05T19:07:39.156Z,97633.00
2022-11-05T19:10:09.798Z,97640.41
2022-11-05T19:12:41.503Z,97644.47
2022-11-05T19:15:11.722Z,97640.81
2022-11-05T19:17:41.298Z,97639.41
2022-11-05T19:20:12.191Z,97637.38
2022-11-05T19:22:43.940Z,97652.03
2022-11-05T19:25:13.764Z,97650.84
2022-11-05T19:27:44.860Z,97657.81
2022-11-05T19:30:15.530Z,97661.38
2022-11-05T19:32:45.070Z,97668.03
2022-11-05T19:35:14.963Z,97659.44
2022-11-05T19:37:45.595Z,97677.59
2022-11-05T19:40:15.104Z,97680.06
2022-11-05T19:42:46.317Z,97680.34
2022-11-05T19:45:42.821Z,97670.88
2022-11-05T19:48:06.575Z,97677.75
2022-11-05T19:50:36.747Z,97682.91
2022-11-05T19:53:06.888Z,97680.53
2022-11-05T19:55:39.875Z,97684.06
2022-11-05T19:58:11.395Z,97685.59
2022-11-05T20:00:43.882Z,97688.75
2022-11-05T20:03:14.042Z,97687.16
2022-11-05T20:05:43.575Z,97680.09
2022-11-05T20:08:13.568Z,97686.38
2022-11-05T20:10:43.680Z,97688.22
2022-11-05T20:13:19.835Z,97686.09
2022-11-05T20:15:50.229Z,97686.88
2022-11-05T20:18:20.212Z,97687.34
2022-11-05T20:20:50.064Z,97695.69
2022-11-05T20:23:19.742Z,97687.66
2022-11-05T20:25:49.371Z,97685.69
2022-11-05T20:28:23.701Z,97691.97
2022-11-05T20:30:53.442Z,97697.34
2022-11-05T20:33:23.109Z,97687.31
2022-11-05T20:35:52.865Z,97699.97
2022-11-05T20:38:22.423Z,97706.63
2022-11-05T20:40:51.914Z,97703.09
2022-11-05T20:43:27.581Z,97713.16
2022-11-05T20:46:00.035Z,97708.16
2022-11-05T20:48:32.898Z,97713.19
2022-11-05T20:51:06.317Z,97706.13
2022-11-05T20:53:36.161Z,97706.63
2022-11-05T20:56:09.157Z,97702.69
2022-11-05T20:58:40.770Z,97714.31
2022-11-05T21:01:12.542Z,97710.84
2022-11-05T21:03:42.923Z,97710.44
2022-11-05T21:06:12.798Z,97702.78
2022-11-05T21:08:43.120Z,97706.25
2022-11-05T21:11:12.858Z,97704.69
2022-11-05T21:13:44.132Z,97711.63
2022-11-05T21:16:17.892Z,97710.09
2022-11-05T21:18:48.842Z,97713.97
2022-11-05T21:21:22.221Z,97710.41
2022-11-05T21:23:51.781Z,97713.47
2022-11-05T21:26:21.790Z,97717.84
2022-11-05T21:28:52.959Z,97717.00
2022-11-05T21:31:22.888Z,97725.13
2022-11-05T21:33:55.349Z,97715.09
2022-11-05T21:36:25.042Z,97715.50
2022-11-05T21:38:55.161Z,97715.13
2022-11-05T21:41:24.639Z,97716.66
2022-11-05T21:43:55.417Z,97719.00
2022-11-05T21:46:25.040Z,97713.59
2022-11-05T21:48:54.799Z,97719.38
2022-11-05T21:51:42.361Z,97720.53
2022-11-05T21:54:30.289Z,97712.38
2022-11-05T21:57:17.206Z,97712.78
2022-11-05T21:59:52.113Z,97711.16
2022-11-05T22:02:23.700Z,97715.81
2022-11-05T22:04:54.941Z,97723.63
2022-11-05T22:07:26.267Z,97717.41
2022-11-05T22:09:56.297Z,97720.53
2022-11-05T22:12:26.128Z,97718.19
2022-11-05T22:14:59.259Z,97719.78
2022-11-05T22:17:28.600Z,97720.56
2022-11-05T22:19:58.527Z,97718.59
2022-11-05T22:22:28.292Z,97714.34
2022-11-05T22:24:57.625Z,97714.34
2022-11-05T22:27:27.210Z,97711.25
2022-11-05T22:29:58.026Z,97719.75
2022-11-05T22:32:27.888Z,97718.22
2022-11-05T22:34:57.396Z,97717.81
2022-11-05T22:37:27.037Z,97710.47
2022-11-05T22:39:57.093Z,97713.19
2022-11-05T22:42:27.002Z,97715.53
2022-11-05T22:44:58.361Z,97706.28
2022-11-05T22:47:27.805Z,97713.56
2022-11-05T22:49:58.494Z,97712.06
2022-11-05T22:52:28.203Z,97713.19
2022-11-05T22:54:57.728Z,97712.03
2022-11-05T22:57:27.471Z,97713.56
2022-11-05T22:59:58.677Z,97710.50
2022-11-05T23:02:28.514Z,97705.09
2022-11-05T23:04:58.231Z,97705.88
2022-11-05T23:07:45.153Z,97702.03
2022-11-05T23:10:32.310Z,97708.50
2022-11-05T23:13:02.001Z,97711.63
2022-11-05T23:15:50.493Z,97709.75
2022-11-05T23:18:37.152Z,97711.28
2022-11-05T23:21:24.750Z,97707.81
2022-11-05T23:24:07.939Z,97715.91
2022-11-05T23:26:54.348Z,97713.59
2022-11-05T23:29:27.383Z,97707.44
2022-11-05T23:32:18.294Z,97717.06
2022-11-05T23:34:48.289Z,97715.16
2022-11-05T23:37:35.263Z,97709.72
2022-11-05T23:40:04.760Z,97709.34
2022-11-05T23:42:51.775Z,97712.03
2022-11-05T23:45:47.431Z,97714.75
2022-11-05T23:48:24.761Z,97714.75
2022-11-05T23:50:58.275Z,97711.25
2022-11-05T23:53:30.063Z,97722.09
2022-11-05T23:56:04.634Z,97719.00
2022-11-05T23:58:37.571Z,97714.69
